Time;durP1;ratioP1;P1;durP2;ratioP2;P2;SDS_P1;SDS_P2;PMS_P1;PMS_P2;Temp;Humidity;BMP_temperature;BMP_pressure;BME280_temperature;BME280_humidity;BME280_pressure;Samples;Min_cycle;Max_cycle;Signal;HPM_P1;HPM_P2
2022/08/24 00:01:29;;;;;;;0.40;0.30;;;19.30;99.90;;;;;;5053554;28;20867;-77
2022/08/24 00:03:59;;;;;;;0.40;0.30;;;19.40;99.90;;;;;;5051869;28;20899;-76
2022/08/24 00:06:26;;;;;;;0.40;0.30;;;19.30;99.90;;;;;;5051965;28;20476;-76
2022/08/24 00:08:53;;;;;;;0.40;0.30;;;19.20;99.90;;;;;;5053760;28;20428;-76
2022/08/24 00:11:19;;;;;;;0.70;0.70;;;19.30;99.90;;;;;;5051595;28;20420;-76
2022/08/24 00:13:45;;;;;;;0.40;0.30;;;19.30;99.90;;;;;;5052353;28;20480;-77
2022/08/24 00:16:11;;;;;;;0.40;0.30;;;19.10;99.90;;;;;;5053344;28;20790;-77
2022/08/24 00:18:38;;;;;;;0.40;0.30;;;19.00;99.90;;;;;;5053236;28;20385;-77
2022/08/24 00:21:05;;;;;;;0.40;0.20;;;19.00;99.90;;;;;;5052707;28;20389;-76
2022/08/24 00:23:30;;;;;;;0.50;0.50;;;19.10;99.90;;;;;;5052691;28;20397;-77
2022/08/24 00:25:56;;;;;;;0.40;0.20;;;19.10;99.90;;;;;;5052992;28;20443;-77
2022/08/24 00:28:22;;;;;;;0.40;0.20;;;19.10;99.90;;;;;;5053074;28;20447;-76
2022/08/24 00:30:49;;;;;;;0.50;0.50;;;19.10;99.90;;;;;;5053081;28;20790;-78
2022/08/24 00:33:14;;;;;;;0.40;0.30;;;19.00;99.90;;;;;;5053401;28;20537;-77
2022/08/24 00:35:43;;;;;;;0.40;0.30;;;19.00;99.90;;;;;;5052885;28;20391;-77
2022/08/24 00:38:09;;;;;;;0.40;0.30;;;19.10;99.90;;;;;;5053676;28;20393;-77
2022/08/24 00:40:38;;;;;;;0.40;0.30;;;19.10;99.90;;;;;;5053008;28;20397;-77
2022/08/24 00:43:05;;;;;;;0.88;0.80;;;19.00;99.90;;;;;;5051677;28;20382;-77
2022/08/24 00:45:36;;;;;;;0.50;0.40;;;19.00;99.90;;;;;;5053502;28;20382;-77
2022/08/24 00:48:06;;;;;;;0.40;0.20;;;19.00;99.90;;;;;;5055180;28;20396;-77
2022/08/24 00:50:37;;;;;;;0.40;0.30;;;18.90;99.90;;;;;;5051901;28;20397;-77
2022/08/24 00:53:08;;;;;;;0.40;0.20;;;18.90;99.90;;;;;;5051736;28;20406;-77
2022/08/24 00:55:40;;;;;;;0.40;0.20;;;18.90;99.90;;;;;;5058083;28;20480;-77
2022/08/24 00:58:11;;;;;;;0.40;0.20;;;18.90;99.90;;;;;;5057002;28;20386;-77
2022/08/24 01:00:42;;;;;;;0.40;0.20;;;18.80;99.90;;;;;;5057706;28;20400;-77
2022/08/24 01:03:08;;;;;;;2.50;1.30;;;18.70;99.90;;;;;;5057902;28;20802;-77
2022/08/24 01:05:36;;;;;;;0.40;0.28;;;18.70;99.90;;;;;;5055937;28;20389;-76
2022/08/24 01:08:05;;;;;;;0.40;0.20;;;18.70;99.90;;;;;;5054173;28;20456;-77
2022/08/24 01:10:35;;;;;;;0.40;0.20;;;18.60;99.90;;;;;;5056165;28;20614;-77
2022/08/24 01:13:04;;;;;;;0.40;0.30;;;18.60;99.90;;;;;;5058969;28;20416;-76
2022/08/24 01:15:34;;;;;;;0.40;0.30;;;18.60;99.90;;;;;;5060738;28;20389;-75
2022/08/24 01:20:48;;;;;;;0.40;0.40;;;18.60;99.90;;;;;;5052076;28;20376;-76
2022/08/24 01:23:36;;;;;;;0.40;0.40;;;18.50;99.90;;;;;;5050949;28;20759;-76
2022/08/24 01:26:03;;;;;;;0.40;0.30;;;18.50;99.90;;;;;;5051593;28;20921;-75
2022/08/24 01:28:29;;;;;;;0.40;0.30;;;18.50;99.90;;;;;;5050504;28;20708;-76
2022/08/24 01:30:55;;;;;;;0.40;0.30;;;18.50;99.90;;;;;;5051851;28;20846;-76
2022/08/24 01:33:27;;;;;;;0.40;0.20;;;18.40;99.90;;;;;;5051351;28;20536;-76
2022/08/24 01:36:00;;;;;;;0.40;0.30;;;18.40;99.90;;;;;;5050191;28;20385;-75
2022/08/24 01:38:26;;;;;;;0.60;0.55;;;18.40;99.90;;;;;;5050173;28;20384;-76
2022/08/24 01:40:56;;;;;;;0.40;0.30;;;18.40;99.90;;;;;;5050211;28;20386;-76
2022/08/24 01:43:23;;;;;;;0.40;0.22;;;18.30;99.90;;;;;;5049931;28;20378;-76
2022/08/24 01:45:49;;;;;;;0.40;0.30;;;18.20;99.90;;;;;;5051409;28;20389;-76
2022/08/24 01:48:14;;;;;;;0.40;0.30;;;18.20;99.90;;;;;;5049431;28;20401;-76
2022/08/24 01:50:40;;;;;;;0.40;0.30;;;18.20;99.90;;;;;;5051335;28;20862;-76
2022/08/24 01:53:06;;;;;;;0.40;0.20;;;18.30;99.90;;;;;;5050901;28;20404;-76
2022/08/24 01:55:33;;;;;;;0.40;0.30;;;18.20;99.90;;;;;;5051262;28;20739;-76
2022/08/24 01:57:59;;;;;;;0.40;0.30;;;18.10;99.90;;;;;;5049969;28;20393;-76
2022/08/24 02:00:26;;;;;;;0.60;0.40;;;18.10;99.90;;;;;;5050209;28;20393;-76
2022/08/24 02:02:51;;;;;;;0.40;0.30;;;18.10;99.90;;;;;;5050663;28;20882;-76
2022/08/24 02:05:17;;;;;;;0.70;0.70;;;18.00;99.90;;;;;;5051003;28;20389;-76
2022/08/24 02:07:43;;;;;;;0.40;0.30;;;17.90;99.90;;;;;;5049888;28;20891;-76
2022/08/24 02:10:11;;;;;;;0.40;0.30;;;17.80;99.90;;;;;;5049733;28;20895;-76
2022/08/24 02:12:39;;;;;;;0.40;0.30;;;17.80;99.90;;;;;;5050609;28;20392;-77
2022/08/24 02:15:07;;;;;;;0.60;0.50;;;17.80;99.90;;;;;;5049537;28;20393;-76
2022/08/24 02:17:34;;;;;;;0.40;0.30;;;17.70;99.90;;;;;;5050719;28;20393;-76
2022/08/24 02:20:00;;;;;;;0.40;0.20;;;17.60;99.90;;;;;;5049502;28;20390;-76
2022/08/24 02:22:26;;;;;;;0.40;0.30;;;17.50;99.90;;;;;;5050168;28;20390;-76
2022/08/24 02:24:51;;;;;;;0.50;0.50;;;17.60;99.90;;;;;;5050635;28;20396;-76
2022/08/24 02:27:17;;;;;;;0.40;0.30;;;17.60;99.90;;;;;;5073481;22;20656;-72
2022/08/24 02:29:43;;;;;;;0.68;0.65;;;17.50;99.90;;;;;;5070538;28;20376;-73
2022/08/24 02:32:10;;;;;;;0.40;0.30;;;17.50;99.90;;;;;;5070465;28;20418;-73
2022/08/24 02:34:35;;;;;;;0.40;0.28;;;17.50;99.90;;;;;;5052104;28;20462;-72
2022/08/24 02:37:01;;;;;;;0.40;0.20;;;17.40;99.90;;;;;;5070272;28;20414;-72
2022/08/24 02:39:27;;;;;;;0.40;0.30;;;17.40;99.90;;;;;;5070261;28;20367;-73
2022/08/24 02:41:52;;;;;;;0.40;0.20;;;17.40;99.90;;;;;;5070230;28;20376;-73
2022/08/24 02:44:18;;;;;;;0.40;0.20;;;17.30;99.90;;;;;;5069976;28;20388;-73
2022/08/24 02:46:44;;;;;;;0.60;0.40;;;17.30;99.90;;;;;;5070214;28;20889;-73
2022/08/24 02:49:10;;;;;;;0.40;0.30;;;17.20;99.90;;;;;;5070178;28;20940;-73
2022/08/24 02:51:35;;;;;;;0.50;0.30;;;17.20;99.90;;;;;;5070266;28;20391;-73
2022/08/24 02:54:02;;;;;;;0.40;0.20;;;17.20;99.90;;;;;;5069704;28;20722;-74
2022/08/24 02:56:31;;;;;;;0.40;0.40;;;17.20;99.90;;;;;;5070063;28;20474;-73
2022/08/24 02:58:59;;;;;;;0.40;0.30;;;17.20;99.90;;;;;;5069402;28;20391;-75
2022/08/24 03:01:26;;;;;;;0.40;0.30;;;17.30;99.90;;;;;;5069786;28;20741;-73
2022/08/24 03:03:52;;;;;;;0.40;0.30;;;17.30;99.90;;;;;;5069770;28;20387;-73
2022/08/24 03:06:18;;;;;;;0.40;0.30;;;17.30;99.90;;;;;;5070099;28;20758;-73
2022/08/24 03:08:45;;;;;;;0.40;0.20;;;17.30;99.90;;;;;;5069796;28;20387;-74
2022/08/24 03:11:10;;;;;;;0.40;0.30;;;17.20;99.90;;;;;;5069946;28;20380;-74
2022/08/24 03:13:37;;;;;;;0.40;0.20;;;17.30;99.90;;;;;;5051547;28;20489;-73
2022/08/24 03:16:03;;;;;;;0.40;0.30;;;17.20;99.90;;;;;;5051941;28;20416;-73
2022/08/24 03:18:29;;;;;;;0.40;0.40;;;17.10;99.90;;;;;;5069782;28;20380;-73
2022/08/24 03:20:57;;;;;;;0.40;0.30;;;17.10;99.90;;;;;;5069918;28;20380;-74
2022/08/24 03:23:22;;;;;;;0.40;0.30;;;17.00;99.90;;;;;;5069014;28;20400;-74
2022/08/24 03:25:50;;;;;;;0.80;0.80;;;17.00;99.90;;;;;;5069833;28;20737;-74
2022/08/24 03:28:16;;;;;;;0.40;0.20;;;17.00;99.90;;;;;;5069614;28;20858;-73
2022/08/24 03:30:42;;;;;;;0.40;0.20;;;17.00;99.90;;;;;;5069800;28;20409;-73
2022/08/24 03:33:08;;;;;;;0.40;0.30;;;17.00;99.90;;;;;;5069735;28;20403;-73
2022/08/24 03:35:34;;;;;;;0.40;0.30;;;16.90;99.90;;;;;;5070123;28;20753;-73
2022/08/24 03:38:00;;;;;;;0.40;0.30;;;16.90;99.90;;;;;;5069911;28;20395;-74
2022/08/24 03:40:26;;;;;;;0.40;0.30;;;16.90;99.90;;;;;;5070057;28;20440;-73
2022/08/24 03:42:53;;;;;;;0.40;0.20;;;16.90;99.90;;;;;;5069787;28;20391;-73
2022/08/24 03:45:19;;;;;;;0.40;0.30;;;16.80;99.90;;;;;;5069949;28;20391;-73
2022/08/24 03:47:45;;;;;;;0.80;0.80;;;16.90;99.90;;;;;;5069932;28;20392;-73
2022/08/24 03:50:11;;;;;;;0.40;0.30;;;16.90;99.90;;;;;;5069858;28;20379;-74
2022/08/24 03:52:37;;;;;;;0.60;0.60;;;16.90;99.90;;;;;;5051534;28;20791;-73
2022/08/24 03:55:06;;;;;;;0.60;0.60;;;16.80;99.90;;;;;;5069924;28;20383;-74
2022/08/24 03:57:32;;;;;;;0.40;0.30;;;16.70;99.90;;;;;;5051554;28;20388;-74
2022/08/24 03:59:57;;;;;;;0.40;0.20;;;16.80;99.90;;;;;;5069882;28;20382;-74
2022/08/24 04:02:23;;;;;;;0.40;0.30;;;16.70;99.90;;;;;;5069791;28;20933;-73
2022/08/24 04:04:49;;;;;;;0.40;0.20;;;16.70;99.90;;;;;;5070077;28;20384;-74
2022/08/24 04:07:15;;;;;;;0.40;0.20;;;16.70;99.90;;;;;;5069446;28;20386;-73
2022/08/24 04:09:40;;;;;;;0.40;0.30;;;16.70;99.90;;;;;;5069729;28;20467;-73
2022/08/24 04:12:06;;;;;;;0.40;0.20;;;16.70;99.90;;;;;;5072383;28;20379;-74
2022/08/24 04:14:33;;;;;;;0.40;0.40;;;16.70;99.90;;;;;;5072815;28;20454;-73
2022/08/24 04:16:59;;;;;;;0.40;0.30;;;16.70;99.90;;;;;;5073477;28;20388;-74
2022/08/24 04:19:25;;;;;;;0.50;0.40;;;16.70;99.90;;;;;;5073432;28;20433;-74
2022/08/24 04:21:51;;;;;;;0.40;0.30;;;16.70;99.90;;;;;;5072689;28;20380;-74
2022/08/24 04:24:16;;;;;;;1.20;1.10;;;16.70;99.90;;;;;;5054953;28;20384;-74
2022/08/24 04:26:42;;;;;;;0.40;0.30;;;16.70;99.90;;;;;;5055179;28;20864;-73
2022/08/24 04:29:10;;;;;;;0.40;0.20;;;16.80;99.90;;;;;;5055094;28;20829;-73
2022/08/24 04:31:41;;;;;;;0.40;0.30;;;16.70;99.90;;;;;;5073064;28;20395;-74
2022/08/24 04:34:07;;;;;;;0.40;0.20;;;16.70;99.90;;;;;;5072710;28;20474;-74
2022/08/24 04:36:33;;;;;;;0.60;0.50;;;16.60;99.90;;;;;;5073067;28;20429;-75
2022/08/24 04:38:59;;;;;;;0.40;0.30;;;16.50;99.90;;;;;;5054990;28;20952;-74
2022/08/24 04:41:25;;;;;;;0.40;0.20;;;16.50;99.90;;;;;;5072981;28;20394;-74
2022/08/24 04:43:51;;;;;;;0.40;0.20;;;16.50;99.90;;;;;;5054579;28;20407;-74
2022/08/24 04:46:18;;;;;;;0.40;0.30;;;16.50;99.90;;;;;;5072846;28;20383;-74
2022/08/24 04:48:46;;;;;;;0.40;0.30;;;16.50;99.90;;;;;;5054864;28;20407;-74
2022/08/24 04:51:14;;;;;;;0.40;0.20;;;16.40;99.90;;;;;;5072768;28;20411;-74
2022/08/24 04:53:40;;;;;;;0.40;0.30;;;16.30;99.90;;;;;;5072402;28;20399;-74
2022/08/24 04:56:25;;;;;;;0.40;0.38;;;16.30;99.90;;;;;;5054742;28;20383;-74
2022/08/24 04:58:52;;;;;;;0.40;0.30;;;16.30;99.90;;;;;;5072173;28;20384;-74
2022/08/24 05:01:20;;;;;;;0.40;0.30;;;16.30;99.90;;;;;;5072523;28;20410;-74
2022/08/24 05:03:49;;;;;;;0.50;0.50;;;16.20;99.90;;;;;;5072254;28;20388;-74
2022/08/24 05:06:16;;;;;;;0.40;0.20;;;16.20;99.90;;;;;;5072416;28;20388;-74
2022/08/24 05:08:42;;;;;;;0.50;0.50;;;16.30;99.90;;;;;;5072356;28;20379;-74
2022/08/24 05:11:08;;;;;;;0.40;0.30;;;16.30;99.90;;;;;;5072461;28;20380;-74
2022/08/24 05:13:35;;;;;;;0.40;0.30;;;16.20;99.90;;;;;;5072157;28;20791;-74
2022/08/24 05:16:05;;;;;;;0.40;0.30;;;16.30;99.90;;;;;;5072378;28;20395;-74
2022/08/24 05:18:32;;;;;;;0.40;0.20;;;16.50;99.90;;;;;;5054175;28;20900;-74
2022/08/24 05:20:58;;;;;;;0.40;0.30;;;16.40;99.90;;;;;;5072216;28;20376;-74
2022/08/24 05:23:23;;;;;;;0.40;0.20;;;16.40;99.90;;;;;;5070454;28;20785;-74
2022/08/24 05:25:49;;;;;;;0.70;0.70;;;16.50;99.90;;;;;;5072107;28;20474;-74
2022/08/24 05:28:15;;;;;;;0.40;0.40;;;16.50;99.90;;;;;;5053748;28;20392;-74
2022/08/24 05:30:40;;;;;;;0.40;0.40;;;16.40;99.90;;;;;;5071715;28;20499;-74
2022/08/24 05:33:06;;;;;;;0.40;0.30;;;16.50;99.90;;;;;;5071603;28;20400;-74
2022/08/24 05:35:37;;;;;;;0.40;0.20;;;16.50;99.90;;;;;;5071949;28;20760;-74
2022/08/24 05:38:03;;;;;;;0.40;0.30;;;16.50;99.90;;;;;;5071788;28;20458;-74
2022/08/24 05:40:28;;;;;;;0.40;0.30;;;16.50;99.90;;;;;;5071828;28;20460;-74
2022/08/24 05:42:54;;;;;;;0.50;0.40;;;16.60;99.90;;;;;;5071453;28;20385;-74
2022/08/24 05:45:20;;;;;;;0.40;0.30;;;16.70;99.90;;;;;;5071577;28;20807;-74
2022/08/24 05:47:45;;;;;;;0.40;0.30;;;16.80;99.90;;;;;;5071335;28;20732;-74
2022/08/24 05:50:11;;;;;;;0.40;0.20;;;16.90;99.90;;;;;;5071463;28;20390;-74
2022/08/24 05:52:36;;;;;;;0.60;0.60;;;16.90;99.90;;;;;;5071126;28;20467;-74
2022/08/24 05:55:04;;;;;;;0.40;0.30;;;17.00;99.90;;;;;;5071677;28;20391;-74
2022/08/24 05:57:32;;;;;;;0.40;0.30;;;17.10;99.90;;;;;;5071245;28;20410;-74
2022/08/24 05:59:58;;;;;;;0.40;0.30;;;17.10;99.90;;;;;;5071418;28;20449;-74
2022/08/24 06:02:24;;;;;;;0.40;0.30;;;17.20;99.90;;;;;;5071222;28;20869;-74
2022/08/24 06:04:49;;;;;;;0.40;0.40;;;17.20;99.90;;;;;;5071028;28;20388;-75
2022/08/24 06:07:15;;;;;;;0.50;0.50;;;17.30;99.90;;;;;;5053330;28;20394;-74
2022/08/24 06:09:41;;;;;;;0.40;0.20;;;17.40;99.90;;;;;;5071123;28;20401;-74
2022/08/24 06:12:08;;;;;;;0.40;0.30;;;17.50;99.90;;;;;;5053013;28;20416;-74
2022/08/24 06:14:34;;;;;;;0.40;0.20;;;17.50;99.90;;;;;;5070785;28;20400;-74
2022/08/24 06:17:03;;;;;;;0.40;0.30;;;17.60;99.90;;;;;;5070809;28;20737;-74
2022/08/24 06:19:28;;;;;;;0.40;0.20;;;17.60;99.90;;;;;;5070993;28;20884;-74
2022/08/24 06:21:55;;;;;;;0.40;0.30;;;17.70;99.90;;;;;;5070328;28;20379;-74
2022/08/24 06:27:20;;;;;;;0.50;0.50;;;17.70;99.90;;;;;;5052535;28;20793;-74
2022/08/24 06:27:20;;;;;;;0.40;0.30;;;17.90;99.90;;;;;;5070379;28;20470;-74
2022/08/24 06:29:47;;;;;;;2.83;0.40;;;18.10;99.90;;;;;;5070828;28;20441;-74
2022/08/24 06:32:12;;;;;;;0.40;0.30;;;18.20;99.90;;;;;;5070804;28;20392;-74
2022/08/24 06:34:38;;;;;;;0.40;0.30;;;18.50;99.90;;;;;;5052264;28;20936;-74
2022/08/24 06:37:04;;;;;;;0.40;0.20;;;18.60;99.90;;;;;;5070530;28;20446;-74
2022/08/24 06:39:30;;;;;;;0.40;0.30;;;18.80;99.90;;;;;;5070646;28;20383;-74
2022/08/24 06:41:55;;;;;;;0.40;0.20;;;18.80;99.90;;;;;;5070525;28;20375;-74
2022/08/24 06:44:21;;;;;;;0.40;0.30;;;18.90;99.90;;;;;;5070285;28;20390;-74
2022/08/24 06:46:46;;;;;;;0.40;0.20;;;19.00;99.90;;;;;;5070702;28;20459;-74
2022/08/24 06:49:12;;;;;;;0.40;0.30;;;19.10;99.90;;;;;;5070479;28;20384;-75
2022/08/24 06:51:37;;;;;;;0.40;0.30;;;19.20;99.90;;;;;;5070330;28;20767;-75
2022/08/24 06:54:03;;;;;;;0.50;0.40;;;19.30;99.90;;;;;;5052153;28;20494;-74
2022/08/24 06:56:29;;;;;;;0.40;0.30;;;19.40;99.90;;;;;;5070342;28;20459;-74
2022/08/24 06:58:54;;;;;;;0.40;0.30;;;19.40;99.90;;;;;;5052393;28;20853;-74
2022/08/24 07:01:24;;;;;;;0.40;0.20;;;19.60;99.90;;;;;;5052434;28;20913;-75
2022/08/24 07:03:49;;;;;;;0.40;0.30;;;19.60;99.90;;;;;;5052036;28;20403;-74
2022/08/24 07:06:16;;;;;;;0.40;0.30;;;19.70;99.90;;;;;;5052359;28;20390;-74
2022/08/24 07:08:43;;;;;;;0.40;0.30;;;19.80;99.90;;;;;;5070254;28;20413;-74
2022/08/24 07:11:09;;;;;;;0.50;0.40;;;20.00;99.90;;;;;;5070140;28;20395;-74
2022/08/24 07:13:35;;;;;;;0.68;0.65;;;20.20;99.90;;;;;;5069946;28;20415;-74
2022/08/24 07:16:01;;;;;;;0.40;0.30;;;20.40;99.90;;;;;;5070293;28;20391;-75
2022/08/24 07:18:27;;;;;;;0.40;0.20;;;20.60;99.90;;;;;;5070240;28;20461;-74
2022/08/24 07:20:53;;;;;;;0.40;0.20;;;20.90;99.90;;;;;;5070283;28;20372;-75
2022/08/24 07:23:20;;;;;;;0.40;0.20;;;21.10;99.90;;;;;;5069915;28;20379;-75
2022/08/24 07:25:46;;;;;;;0.95;0.73;;;21.30;99.90;;;;;;5070425;28;20583;-74
2022/08/24 07:28:12;;;;;;;0.40;0.40;;;21.60;99.90;;;;;;5070113;28;20433;-74
2022/08/24 07:30:39;;;;;;;0.40;0.30;;;21.80;99.90;;;;;;5070168;28;20420;-75
2022/08/24 07:33:05;;;;;;;0.40;0.20;;;21.90;99.40;;;;;;5069804;28;20408;-75
2022/08/24 07:35:33;;;;;;;0.60;0.60;;;22.00;98.90;;;;;;5070232;28;20446;-74
2022/08/24 07:38:00;;;;;;;0.40;0.30;;;22.10;98.10;;;;;;5070190;28;20752;-75
2022/08/24 07:40:27;;;;;;;0.40;0.20;;;22.20;97.60;;;;;;5070127;28;20380;-75
2022/08/24 07:42:55;;;;;;;0.40;0.27;;;22.20;97.00;;;;;;5069628;28;20829;-74
2022/08/24 07:45:21;;;;;;;0.40;0.20;;;22.30;96.70;;;;;;5070195;28;20422;-75
2022/08/24 07:47:48;;;;;;;0.40;0.20;;;22.30;97.20;;;;;;5073893;28;20449;-75
2022/08/24 07:50:14;;;;;;;0.40;0.20;;;22.40;96.50;;;;;;5073929;28;20383;-74
2022/08/24 07:52:41;;;;;;;0.40;0.30;;;22.60;94.40;;;;;;5055526;28;20453;-75
2022/08/24 07:55:07;;;;;;;0.40;0.30;;;22.80;95.30;;;;;;5073858;28;20761;-75
2022/08/24 07:57:33;;;;;;;0.40;0.30;;;22.70;95.30;;;;;;5073669;28;20384;-74
2022/08/24 08:00:00;;;;;;;0.40;0.30;;;22.80;95.50;;;;;;5055889;28;20436;-74
2022/08/24 08:02:26;;;;;;;0.60;0.50;;;22.90;96.40;;;;;;5073507;28;20503;-74
2022/08/24 08:04:54;;;;;;;0.40;0.30;;;22.90;95.20;;;;;;5073502;28;20395;-75
2022/08/24 08:07:20;;;;;;;0.40;0.20;;;23.10;94.60;;;;;;5055574;28;20417;-74
2022/08/24 08:09:45;;;;;;;0.40;0.20;;;23.20;93.90;;;;;;5073518;28;20508;-74
2022/08/24 08:12:11;;;;;;;0.40;0.20;;;23.10;94.20;;;;;;5073483;28;20388;-74
2022/08/24 08:14:39;;;;;;;0.40;0.30;;;23.20;94.20;;;;;;5073513;28;20460;-75
2022/08/24 08:17:06;;;;;;;0.40;0.30;;;23.30;93.90;;;;;;5073541;28;20384;-74
2022/08/24 08:19:32;;;;;;;0.40;0.20;;;23.30;93.30;;;;;;5073610;28;20917;-74
2022/08/24 08:24:42;;;;;;;0.40;0.30;;;23.40;93.00;;;;;;5073254;28;20504;-75
2022/08/24 08:27:09;;;;;;;0.40;0.30;;;23.50;92.60;;;;;;5096263;22;20795;-76
2022/08/24 08:29:38;;;;;;;0.40;0.20;;;23.50;93.30;;;;;;5052453;28;20396;-77
2022/08/24 08:32:04;;;;;;;0.40;0.30;;;23.40;92.50;;;;;;5073266;28;20380;-77
2022/08/24 08:34:30;;;;;;;0.40;0.30;;;23.50;92.90;;;;;;5072866;28;20410;-77
2022/08/24 08:36:56;;;;;;;0.50;0.40;;;23.60;93.10;;;;;;5072848;28;20475;-77
2022/08/24 08:39:22;;;;;;;0.40;0.20;;;23.60;92.70;;;;;;5073242;28;20376;-77
2022/08/24 08:42:07;;;;;;;0.40;0.30;;;23.70;92.30;;;;;;5055348;28;20403;-77
2022/08/24 08:44:54;;;;;;;0.40;0.30;;;23.80;92.00;;;;;;5073213;28;20387;-77
2022/08/24 08:47:56;;;;;;;0.50;0.40;;;23.70;91.70;;;;;;5072906;28;20418;-77
2022/08/24 08:50:47;;;;;;;0.40;0.27;;;23.80;91.80;;;;;;5072841;28;20386;-77
2022/08/24 08:53:47;;;;;;;0.40;0.20;;;23.80;91.70;;;;;;5073303;28;20422;-77
2022/08/24 08:56:28;;;;;;;0.50;0.50;;;23.80;92.10;;;;;;5073023;28;20380;-76
2022/08/24 08:59:09;;;;;;;0.40;0.30;;;23.70;92.30;;;;;;5071727;28;20376;-77
2022/08/24 09:02:18;;;;;;;0.50;0.40;;;23.80;92.10;;;;;;5054724;28;20801;-77
2022/08/24 09:05:21;;;;;;;0.40;0.28;;;23.80;92.20;;;;;;5068076;28;20395;-77
2022/08/24 09:08:05;;;;;;;0.70;0.70;;;23.80;92.40;;;;;;5072632;28;20382;-76
2022/08/24 09:10:53;;;;;;;0.50;0.40;;;23.80;92.70;;;;;;5072605;28;20383;-76
2022/08/24 09:14:06;;;;;;;0.40;0.30;;;23.80;92.60;;;;;;5054336;28;20474;-76
2022/08/24 09:16:59;;;;;;;0.40;0.20;;;23.90;92.70;;;;;;5019298;28;20889;-77
2022/08/24 09:19:50;;;;;;;0.40;0.30;;;24.00;92.60;;;;;;5054696;28;20814;-77
2022/08/24 09:22:19;;;;;;;0.40;0.30;;;24.10;91.80;;;;;;5071773;28;20399;-76
2022/08/24 09:24:53;;;;;;;0.40;0.40;;;24.30;92.60;;;;;;5072002;28;20388;-77
2022/08/24 09:27:45;;;;;;;0.40;0.30;;;24.20;92.90;;;;;;5072153;28;20759;-76
2022/08/24 09:30:19;;;;;;;0.40;0.30;;;24.30;92.70;;;;;;5071807;28;20392;-77
2022/08/24 09:33:00;;;;;;;0.40;0.20;;;24.50;93.10;;;;;;5053762;28;20414;-76
2022/08/24 09:35:58;;;;;;;0.40;0.20;;;24.50;93.00;;;;;;5071196;28;20444;-77
2022/08/24 09:38:54;;;;;;;0.40;0.30;;;24.70;92.50;;;;;;5071536;28;20537;-76
2022/08/24 09:41:48;;;;;;;0.40;0.30;;;24.80;92.40;;;;;;5071547;28;20863;-76
2022/08/24 09:44:47;;;;;;;0.73;0.70;;;24.80;92.40;;;;;;5053728;28;20388;-77
2022/08/24 09:47:31;;;;;;;0.40;0.30;;;24.90;91.40;;;;;;5053657;28;20395;-77
2022/08/24 09:50:28;;;;;;;0.40;0.30;;;25.00;91.40;;;;;;5071339;28;20422;-77
2022/08/24 09:53:12;;;;;;;0.40;0.30;;;25.00;90.90;;;;;;5071085;28;20449;-76
2022/08/24 09:56:12;;;;;;;0.40;0.30;;;25.10;91.00;;;;;;5071630;28;20806;-76
2022/08/24 09:58:53;;;;;;;0.40;0.30;;;25.20;90.80;;;;;;5067004;28;20871;-77
2022/08/24 10:01:30;;;;;;;0.40;0.30;;;25.40;91.40;;;;;;5071709;28;20433;-77
2022/08/24 10:04:01;;;;;;;0.40;0.30;;;25.50;91.20;;;;;;5071382;28;20392;-77
2022/08/24 10:06:47;;;;;;;0.40;0.30;;;25.60;90.40;;;;;;5071536;28;20418;-77
2022/08/24 10:09:34;;;;;;;0.70;0.70;;;25.70;90.20;;;;;;5071477;28;20384;-77
2022/08/24 10:12:17;;;;;;;0.40;0.20;;;25.70;88.10;;;;;;5070205;28;20469;-77
2022/08/24 10:15:03;;;;;;;0.40;0.30;;;26.10;87.20;;;;;;5070520;28;20486;-77
2022/08/24 10:17:59;;;;;;;0.60;0.60;;;26.30;85.20;;;;;;5053202;28;20388;-77
2022/08/24 10:20:31;;;;;;;0.40;0.30;;;26.50;83.90;;;;;;5071319;28;20383;-76
2022/08/24 10:23:13;;;;;;;1.10;0.80;;;26.50;84.60;;;;;;5070456;28;20382;-77
2022/08/24 10:25:54;;;;;;;0.40;0.20;;;26.70;77.80;;;;;;5052966;28;20442;-77
2022/08/24 10:28:38;;;;;;;0.40;0.20;;;26.80;82.70;;;;;;5052959;28;20411;-76
2022/08/24 10:31:08;;;;;;;0.50;0.40;;;27.00;73.80;;;;;;5053668;28;20467;-77
2022/08/24 10:33:59;;;;;;;0.90;0.70;;;27.30;70.90;;;;;;5070686;28;20457;-76
2022/08/24 10:36:39;;;;;;;0.40;0.30;;;27.40;64.70;;;;;;5071249;28;20870;-76
2022/08/24 10:39:42;;;;;;;0.40;0.30;;;27.60;59.00;;;;;;5071440;28;20390;-75
2022/08/24 10:45:37;;;;;;;0.40;0.30;;;27.90;57.80;;;;;;5075289;28;20425;-77
2022/08/24 10:48:20;;;;;;;0.40;0.30;;;28.00;57.70;;;;;;5076684;28;20386;-78
2022/08/24 10:50:51;;;;;;;0.40;0.30;;;28.30;56.30;;;;;;5071003;28;20390;-78
2022/08/24 10:53:27;;;;;;;0.40;0.20;;;28.30;54.80;;;;;;5070410;28;20398;-76
2022/08/24 10:56:12;;;;;;;0.40;0.30;;;28.40;55.90;;;;;;5070802;28;20398;-76
2022/08/24 10:58:42;;;;;;;0.40;0.20;;;28.60;54.10;;;;;;5070805;28;20384;-77
2022/08/24 11:01:20;;;;;;;0.40;0.40;;;28.70;52.60;;;;;;5052848;28;20383;-76
2022/08/24 11:03:58;;;;;;;0.40;0.20;;;28.70;53.30;;;;;;5070579;28;20875;-77
2022/08/24 11:06:30;;;;;;;0.80;0.70;;;29.00;52.00;;;;;;5064785;28;20906;-78
2022/08/24 11:09:01;;;;;;;0.40;0.20;;;28.90;51.70;;;;;;5051263;28;20392;-75
2022/08/24 11:11:56;;;;;;;0.40;0.20;;;29.10;51.70;;;;;;5061970;28;20894;-75
2022/08/24 11:14:28;;;;;;;0.40;0.30;;;29.30;52.20;;;;;;5049001;28;20765;-75
2022/08/24 11:17:15;;;;;;;0.40;0.30;;;29.30;51.60;;;;;;5061277;28;20402;-75
2022/08/24 11:19:42;;;;;;;0.40;0.30;;;29.40;50.40;;;;;;5065764;28;20380;-76
2022/08/24 11:22:31;;;;;;;0.40;0.20;;;29.60;52.30;;;;;;5054571;28;20425;-77
2022/08/24 11:25:07;;;;;;;0.40;0.30;;;29.40;48.10;;;;;;5039997;28;20824;-76
2022/08/24 11:27:34;;;;;;;0.40;0.20;;;29.70;48.20;;;;;;5070052;28;20436;-76
2022/08/24 11:30:08;;;;;;;0.40;0.20;;;29.80;49.00;;;;;;5070467;28;20380;-75
2022/08/24 11:32:42;;;;;;;0.40;0.20;;;29.90;48.60;;;;;;5052252;28;20463;-76
2022/08/24 11:35:14;;;;;;;0.40;0.30;;;30.30;48.00;;;;;;5052215;28;20403;-75
2022/08/24 11:37:41;;;;;;;0.40;0.20;;;30.50;46.90;;;;;;5052465;28;20469;-76
2022/08/24 11:40:08;;;;;;;0.40;0.20;;;30.50;47.30;;;;;;5070254;28;20387;-76
2022/08/24 11:42:58;;;;;;;0.40;0.30;;;31.10;47.80;;;;;;5052061;28;20912;-76
2022/08/24 11:45:35;;;;;;;0.40;0.30;;;30.90;44.40;;;;;;5070360;28;20426;-76
2022/08/24 11:48:05;;;;;;;0.40;0.20;;;31.50;45.20;;;;;;5052304;28;20376;-75
2022/08/24 11:50:32;;;;;;;0.40;0.20;;;32.10;43.80;;;;;;5070083;28;20382;-76
2022/08/24 11:53:30;;;;;;;0.40;0.20;;;32.40;42.90;;;;;;5051891;28;20390;-76
2022/08/24 11:56:12;;;;;;;0.40;0.20;;;32.30;43.10;;;;;;5070300;28;20387;-76
2022/08/24 11:58:52;;;;;;;0.40;0.30;;;31.90;43.10;;;;;;5052082;28;20412;-76
2022/08/24 12:01:38;;;;;;;0.40;0.20;;;31.90;43.30;;;;;;5052169;28;20383;-76
2022/08/24 12:04:26;;;;;;;0.40;0.20;;;32.40;44.10;;;;;;5069866;28;20399;-74
2022/08/24 12:06:58;;;;;;;0.40;0.20;;;32.40;43.20;;;;;;5070059;28;20379;-74
2022/08/24 12:09:24;;;;;;;0.40;0.20;;;32.50;42.90;;;;;;5070303;28;20810;-75
2022/08/24 12:11:53;;;;;;;0.40;0.20;;;33.00;41.70;;;;;;5069622;28;20463;-75
2022/08/24 12:14:41;;;;;;;0.40;0.20;;;32.50;40.80;;;;;;5051482;28;20410;-75
2022/08/24 12:17:22;;;;;;;0.40;0.20;;;33.00;42.80;;;;;;5069979;28;20423;-75
2022/08/24 12:19:57;;;;;;;0.40;0.20;;;33.00;41.20;;;;;;5069994;28;20738;-76
2022/08/24 12:22:25;;;;;;;0.40;0.20;;;32.40;39.30;;;;;;5051382;28;20395;-75
2022/08/24 12:24:58;;;;;;;0.40;0.30;;;32.40;39.50;;;;;;5051792;28;20372;-76
2022/08/24 12:27:33;;;;;;;0.40;0.20;;;32.20;39.70;;;;;;5051108;28;20862;-75
2022/08/24 12:30:05;;;;;;;0.40;0.20;;;32.50;39.80;;;;;;5069873;28;20384;-75
2022/08/24 12:32:39;;;;;;;0.40;0.20;;;32.90;37.10;;;;;;5071210;28;20376;-75
2022/08/24 12:35:18;;;;;;;0.40;0.20;;;32.70;36.50;;;;;;5073102;28;20449;-76
2022/08/24 12:37:57;;;;;;;0.40;0.20;;;33.10;36.10;;;;;;5073156;28;20936;-76
2022/08/24 12:40:32;;;;;;;0.40;0.20;;;32.80;36.70;;;;;;5073386;28;20383;-76
2022/08/24 12:43:08;;;;;;;0.40;0.30;;;33.30;36.80;;;;;;5054857;28;20750;-76
2022/08/24 12:45:35;;;;;;;0.40;0.20;;;33.50;37.90;;;;;;5073134;28;20375;-76
2022/08/24 12:48:29;;;;;;;0.40;0.20;;;33.50;36.70;;;;;;5073225;28;20434;-76
2022/08/24 12:51:31;;;;;;;0.40;0.20;;;33.30;36.00;;;;;;5073170;28;20525;-76
2022/08/24 12:54:24;;;;;;;0.40;0.20;;;33.00;37.40;;;;;;5072582;28;20404;-76
2022/08/24 12:57:02;;;;;;;0.40;0.20;;;33.60;38.10;;;;;;5073128;28;20380;-76
2022/08/24 12:59:39;;;;;;;0.40;0.20;;;33.50;35.50;;;;;;5073063;28;20753;-76
2022/08/24 13:02:28;;;;;;;0.40;0.20;;;34.10;33.60;;;;;;5073001;28;20387;-76
2022/08/24 13:05:03;;;;;;;0.40;0.20;;;34.10;35.80;;;;;;5072712;28;20407;-76
2022/08/24 13:07:38;;;;;;;0.40;0.20;;;33.60;34.40;;;;;;5054652;28;20387;-76
2022/08/24 13:10:10;;;;;;;0.40;0.20;;;33.70;35.50;;;;;;5072866;28;20412;-76
2022/08/24 13:12:45;;;;;;;0.40;0.20;;;33.80;32.60;;;;;;5072383;28;20462;-76
2022/08/24 13:15:26;;;;;;;0.40;0.20;;;33.60;34.60;;;;;;5072762;28;20411;-76
2022/08/24 13:17:57;;;;;;;0.40;0.20;;;33.30;35.20;;;;;;5054640;28;20371;-76
2022/08/24 13:20:27;;;;;;;0.40;0.20;;;33.50;33.90;;;;;;5072403;28;20379;-76